sensor_id;sensor_type;location;lat;lon;timestamp;P1;durP1;ratioP1;P2;durP2;ratioP2
52480;SDS011;38393;52.404;13.532;2023-03-24T00:00:42;5.90;;;3.47;;
52480;SDS011;38393;52.404;13.532;2023-03-24T00:03:07;4.70;;;3.70;;
52480;SDS011;38393;52.404;13.532;2023-03-24T00:05:33;4.80;;;3.63;;
52480;SDS011;38393;52.404;13.532;2023-03-24T00:07:58;4.77;;;3.30;;
52480;SDS011;38393;52.404;13.532;2023-03-24T00:10:26;5.53;;;3.43;;
52480;SDS011;38393;52.404;13.532;2023-03-24T00:12:54;5.47;;;3.70;;
52480;SDS011;38393;52.404;13.532;2023-03-24T00:15:22;4.03;;;3.43;;
52480;SDS011;38393;52.404;13.532;2023-03-24T00:17:48;5.13;;;3.70;;
52480;SDS011;38393;52.404;13.532;2023-03-24T00:20:14;4.73;;;3.80;;
52480;SDS011;38393;52.404;13.532;2023-03-24T00:22:46;5.40;;;3.67;;
52480;SDS011;38393;52.404;13.532;2023-03-24T00:25:15;3.80;;;3.40;;
52480;SDS011;38393;52.404;13.532;2023-03-24T00:27:41;5.20;;;3.80;;
52480;SDS011;38393;52.404;13.532;2023-03-24T00:30:09;4.90;;;3.40;;
52480;SDS011;38393;52.404;13.532;2023-03-24T00:32:36;5.30;;;3.70;;
52480;SDS011;38393;52.404;13.532;2023-03-24T00:35:06;4.27;;;3.57;;
52480;SDS011;38393;52.404;13.532;2023-03-24T00:37:34;4.60;;;3.47;;
52480;SDS011;38393;52.404;13.532;2023-03-24T00:40:01;5.93;;;3.93;;
52480;SDS011;38393;52.404;13.532;2023-03-24T00:42:33;4.40;;;4.00;;
52480;SDS011;38393;52.404;13.532;2023-03-24T00:45:00;5.10;;;3.93;;
52480;SDS011;38393;52.404;13.532;2023-03-24T00:47:28;4.30;;;3.60;;
52480;SDS011;38393;52.404;13.532;2023-03-24T00:49:53;4.23;;;3.80;;
52480;SDS011;38393;52.404;13.532;2023-03-24T00:52:22;3.83;;;3.43;;
52480;SDS011;38393;52.404;13.532;2023-03-24T00:54:49;3.80;;;3.30;;
52480;SDS011;38393;52.404;13.532;2023-03-24T00:57:18;4.43;;;3.40;;
52480;SDS011;38393;52.404;13.532;2023-03-24T00:59:50;5.17;;;3.80;;
52480;SDS011;38393;52.404;13.532;2023-03-24T01:02:21;3.73;;;3.30;;
52480;SDS011;38393;52.404;13.532;2023-03-24T01:04:54;4.10;;;3.37;;
52480;SDS011;38393;52.404;13.532;2023-03-24T01:07:23;4.47;;;3.20;;
52480;SDS011;38393;52.404;13.532;2023-03-24T01:09:50;4.90;;;3.60;;
52480;SDS011;38393;52.404;13.532;2023-03-24T01:12:21;4.70;;;3.50;;
52480;SDS011;38393;52.404;13.532;2023-03-24T01:14:48;4.37;;;3.63;;
52480;SDS011;38393;52.404;13.532;2023-03-24T01:17:14;4.73;;;3.77;;
52480;SDS011;38393;52.404;13.532;2023-03-24T01:19:39;5.67;;;3.90;;
52480;SDS011;38393;52.404;13.532;2023-03-24T01:22:06;5.20;;;3.80;;
52480;SDS011;38393;52.404;13.532;2023-03-24T01:24:32;4.93;;;3.43;;
52480;SDS011;38393;52.404;13.532;2023-03-24T01:26:57;5.70;;;3.60;;
52480;SDS011;38393;52.404;13.532;2023-03-24T01:29:23;4.13;;;3.40;;
52480;SDS011;38393;52.404;13.532;2023-03-24T01:31:48;6.20;;;3.90;;
52480;SDS011;38393;52.404;13.532;2023-03-24T01:34:14;4.40;;;3.10;;
52480;SDS011;38393;52.404;13.532;2023-03-24T01:36:39;4.40;;;3.50;;
52480;SDS011;38393;52.404;13.532;2023-03-24T01:39:05;4.40;;;3.60;;
52480;SDS011;38393;52.404;13.532;2023-03-24T01:41:33;4.47;;;3.20;;
52480;SDS011;38393;52.404;13.532;2023-03-24T01:44:00;4.60;;;3.40;;
52480;SDS011;38393;52.404;13.532;2023-03-24T01:46:46;4.97;;;3.37;;
52480;SDS011;38393;52.404;13.532;2023-03-24T01:49:12;5.27;;;3.60;;
52480;SDS011;38393;52.404;13.532;2023-03-24T01:51:38;6.07;;;3.63;;
52480;SDS011;38393;52.404;13.532;2023-03-24T01:54:13;4.40;;;3.43;;
52480;SDS011;38393;52.404;13.532;2023-03-24T01:56:56;4.80;;;3.37;;
52480;SDS011;38393;52.404;13.532;2023-03-24T01:59:27;3.90;;;3.50;;
52480;SDS011;38393;52.404;13.532;2023-03-24T02:01:54;5.13;;;3.50;;
52480;SDS011;38393;52.404;13.532;2023-03-24T02:04:28;4.90;;;3.67;;
52480;SDS011;38393;52.404;13.532;2023-03-24T02:06:55;7.43;;;3.80;;
52480;SDS011;38393;52.404;13.532;2023-03-24T02:09:23;5.50;;;3.70;;
52480;SDS011;38393;52.404;13.532;2023-03-24T02:11:48;4.70;;;3.73;;
52480;SDS011;38393;52.404;13.532;2023-03-24T02:14:15;4.73;;;3.33;;
52480;SDS011;38393;52.404;13.532;2023-03-24T02:22:02;4.93;;;3.90;;
52480;SDS011;38393;52.404;13.532;2023-03-24T02:25:09;5.30;;;3.33;;
52480;SDS011;38393;52.404;13.532;2023-03-24T02:30:17;4.53;;;3.50;;
52480;SDS011;38393;52.404;13.532;2023-03-24T02:33:52;5.47;;;3.30;;
52480;SDS011;38393;52.404;13.532;2023-03-24T02:38:43;5.03;;;3.00;;
52480;SDS011;38393;52.404;13.532;2023-03-24T02:41:37;4.33;;;3.30;;
52480;SDS011;38393;52.404;13.532;2023-03-24T02:47:00;4.53;;;3.20;;
52480;SDS011;38393;52.404;13.532;2023-03-24T02:54:48;4.80;;;3.07;;
52480;SDS011;38393;52.404;13.532;2023-03-24T03:00:16;3.47;;;3.00;;
52480;SDS011;38393;52.404;13.532;2023-03-24T03:03:05;4.23;;;3.33;;
52480;SDS011;38393;52.404;13.532;2023-03-24T03:05:34;6.93;;;3.30;;
52480;SDS011;38393;52.404;13.532;2023-03-24T03:08:05;4.13;;;3.17;;
52480;SDS011;38393;52.404;13.532;2023-03-24T03:10:34;4.90;;;3.50;;
52480;SDS011;38393;52.404;13.532;2023-03-24T03:13:06;4.47;;;2.83;;
52480;SDS011;38393;52.404;13.532;2023-03-24T03:15:35;4.57;;;3.40;;
52480;SDS011;38393;52.404;13.532;2023-03-24T03:20:38;5.07;;;3.30;;
52480;SDS011;38393;52.404;13.532;2023-03-24T03:23:14;4.80;;;3.20;;
52480;SDS011;38393;52.404;13.532;2023-03-24T03:25:46;5.67;;;3.70;;
52480;SDS011;38393;52.404;13.532;2023-03-24T03:28:19;3.90;;;3.30;;
52480;SDS011;38393;52.404;13.532;2023-03-24T03:30:53;4.03;;;3.00;;
52480;SDS011;38393;52.404;13.532;2023-03-24T03:33:28;5.13;;;3.30;;
52480;SDS011;38393;52.404;13.532;2023-03-24T03:39:11;4.13;;;3.33;;
52480;SDS011;38393;52.404;13.532;2023-03-24T03:41:40;6.43;;;3.80;;
52480;SDS011;38393;52.404;13.532;2023-03-24T03:44:06;6.73;;;3.50;;
52480;SDS011;38393;52.404;13.532;2023-03-24T03:46:33;5.87;;;3.50;;
52480;SDS011;38393;52.404;13.532;2023-03-24T03:49:00;4.50;;;3.57;;
52480;SDS011;38393;52.404;13.532;2023-03-24T03:51:26;7.77;;;3.87;;
52480;SDS011;38393;52.404;13.532;2023-03-24T03:53:53;5.30;;;3.87;;
52480;SDS011;38393;52.404;13.532;2023-03-24T03:56:23;4.90;;;3.80;;
52480;SDS011;38393;52.404;13.532;2023-03-24T03:58:51;5.70;;;4.20;;
52480;SDS011;38393;52.404;13.532;2023-03-24T04:01:18;5.63;;;4.23;;
52480;SDS011;38393;52.404;13.532;2023-03-24T04:03:58;5.07;;;4.17;;
52480;SDS011;38393;52.404;13.532;2023-03-24T04:09:40;5.87;;;4.70;;
52480;SDS011;38393;52.404;13.532;2023-03-24T04:15:24;6.50;;;4.87;;
52480;SDS011;38393;52.404;13.532;2023-03-24T04:18:02;6.93;;;4.87;;
52480;SDS011;38393;52.404;13.532;2023-03-24T04:20:59;7.07;;;5.10;;
52480;SDS011;38393;52.404;13.532;2023-03-24T04:23:51;6.63;;;4.90;;
52480;SDS011;38393;52.404;13.532;2023-03-24T04:26:29;12.37;;;8.13;;
52480;SDS011;38393;52.404;13.532;2023-03-24T04:29:02;8.67;;;5.83;;
52480;SDS011;38393;52.404;13.532;2023-03-24T04:31:43;7.87;;;5.80;;
52480;SDS011;38393;52.404;13.532;2023-03-24T04:34:17;6.90;;;5.47;;
52480;SDS011;38393;52.404;13.532;2023-03-24T04:36:53;8.30;;;5.57;;
52480;SDS011;38393;52.404;13.532;2023-03-24T04:39:26;9.57;;;6.03;;
52480;SDS011;38393;52.404;13.532;2023-03-24T04:41:55;7.60;;;6.07;;
52480;SDS011;38393;52.404;13.532;2023-03-24T04:44:23;7.83;;;6.10;;
52480;SDS011;38393;52.404;13.532;2023-03-24T04:46:50;8.83;;;6.10;;
52480;SDS011;38393;52.404;13.532;2023-03-24T04:49:19;7.63;;;6.17;;
52480;SDS011;38393;52.404;13.532;2023-03-24T04:51:48;10.50;;;6.30;;
52480;SDS011;38393;52.404;13.532;2023-03-24T04:54:15;9.90;;;6.03;;
52480;SDS011;38393;52.404;13.532;2023-03-24T04:56:45;10.10;;;6.07;;
52480;SDS011;38393;52.404;13.532;2023-03-24T04:59:14;8.97;;;6.10;;
52480;SDS011;38393;52.404;13.532;2023-03-24T05:01:41;12.30;;;6.10;;
52480;SDS011;38393;52.404;13.532;2023-03-24T05:04:17;8.27;;;6.00;;
52480;SDS011;38393;52.404;13.532;2023-03-24T05:06:44;10.23;;;5.90;;
52480;SDS011;38393;52.404;13.532;2023-03-24T05:09:10;8.00;;;5.83;;
52480;SDS011;38393;52.404;13.532;2023-03-24T05:11:45;8.13;;;5.70;;
52480;SDS011;38393;52.404;13.532;2023-03-24T05:14:11;7.53;;;5.83;;
52480;SDS011;38393;52.404;13.532;2023-03-24T05:16:36;7.53;;;5.50;;
52480;SDS011;38393;52.404;13.532;2023-03-24T05:19:02;7.97;;;5.70;;
52480;SDS011;38393;52.404;13.532;2023-03-24T05:21:28;8.27;;;6.20;;
52480;SDS011;38393;52.404;13.532;2023-03-24T05:23:55;8.93;;;6.13;;
52480;SDS011;38393;52.404;13.532;2023-03-24T05:26:21;10.50;;;6.77;;
52480;SDS011;38393;52.404;13.532;2023-03-24T05:28:46;10.27;;;6.47;;
52480;SDS011;38393;52.404;13.532;2023-03-24T05:31:11;10.83;;;5.80;;
52480;SDS011;38393;52.404;13.532;2023-03-24T05:33:37;7.27;;;5.40;;
52480;SDS011;38393;52.404;13.532;2023-03-24T05:36:03;7.93;;;5.73;;
52480;SDS011;38393;52.404;13.532;2023-03-24T05:38:29;11.00;;;6.70;;
52480;SDS011;38393;52.404;13.532;2023-03-24T05:40:55;9.07;;;6.00;;
52480;SDS011;38393;52.404;13.532;2023-03-24T05:43:22;9.47;;;5.60;;
52480;SDS011;38393;52.404;13.532;2023-03-24T05:45:47;7.47;;;5.20;;
52480;SDS011;38393;52.404;13.532;2023-03-24T05:48:12;7.77;;;5.70;;
52480;SDS011;38393;52.404;13.532;2023-03-24T05:50:38;6.70;;;5.03;;
52480;SDS011;38393;52.404;13.532;2023-03-24T05:53:03;6.83;;;5.40;;
52480;SDS011;38393;52.404;13.532;2023-03-24T05:55:29;7.73;;;5.47;;
52480;SDS011;38393;52.404;13.532;2023-03-24T05:57:54;7.63;;;5.30;;
52480;SDS011;38393;52.404;13.532;2023-03-24T06:00:20;6.83;;;5.20;;
52480;SDS011;38393;52.404;13.532;2023-03-24T06:02:47;7.47;;;5.20;;
52480;SDS011;38393;52.404;13.532;2023-03-24T06:05:13;6.20;;;4.83;;
52480;SDS011;38393;52.404;13.532;2023-03-24T06:07:39;6.83;;;4.83;;
52480;SDS011;38393;52.404;13.532;2023-03-24T06:10:06;7.00;;;4.87;;
52480;SDS011;38393;52.404;13.532;2023-03-24T06:12:35;7.00;;;4.60;;
52480;SDS011;38393;52.404;13.532;2023-03-24T06:15:00;5.23;;;4.10;;
52480;SDS011;38393;52.404;13.532;2023-03-24T06:17:27;6.20;;;3.93;;
52480;SDS011;38393;52.404;13.532;2023-03-24T06:19:54;6.23;;;4.00;;
52480;SDS011;38393;52.404;13.532;2023-03-24T06:22:27;6.20;;;4.23;;
52480;SDS011;38393;52.404;13.532;2023-03-24T06:24:53;7.13;;;4.40;;
52480;SDS011;38393;52.404;13.532;2023-03-24T06:27:20;4.70;;;3.90;;
52480;SDS011;38393;52.404;13.532;2023-03-24T06:29:50;6.03;;;4.30;;
52480;SDS011;38393;52.404;13.532;2023-03-24T06:32:17;5.90;;;4.40;;
52480;SDS011;38393;52.404;13.532;2023-03-24T06:34:43;6.93;;;4.60;;
52480;SDS011;38393;52.404;13.532;2023-03-24T06:37:09;7.33;;;4.70;;
52480;SDS011;38393;52.404;13.532;2023-03-24T06:39:34;13.67;;;4.50;;
52480;SDS011;38393;52.404;13.532;2023-03-24T06:42:00;6.70;;;4.27;;
52480;SDS011;38393;52.404;13.532;2023-03-24T06:44:25;6.23;;;4.60;;
52480;SDS011;38393;52.404;13.532;2023-03-24T06:46:51;5.63;;;4.30;;
52480;SDS011;38393;52.404;13.532;2023-03-24T06:49:17;7.50;;;4.47;;
52480;SDS011;38393;52.404;13.532;2023-03-24T06:51:42;7.07;;;4.50;;
52480;SDS011;38393;52.404;13.532;2023-03-24T06:54:08;8.90;;;5.00;;
52480;SDS011;38393;52.404;13.532;2023-03-24T06:56:33;7.20;;;4.47;;
52480;SDS011;38393;52.404;13.532;2023-03-24T06:58:59;6.67;;;4.47;;
52480;SDS011;38393;52.404;13.532;2023-03-24T07:01:25;4.90;;;3.80;;
52480;SDS011;38393;52.404;13.532;2023-03-24T07:03:50;5.67;;;3.77;;
52480;SDS011;38393;52.404;13.532;2023-03-24T07:06:17;5.30;;;3.93;;
52480;SDS011;38393;52.404;13.532;2023-03-24T07:08:43;5.43;;;4.17;;
52480;SDS011;38393;52.404;13.532;2023-03-24T07:11:09;5.70;;;4.03;;
52480;SDS011;38393;52.404;13.532;2023-03-24T07:13:35;4.67;;;3.73;;
52480;SDS011;38393;52.404;13.532;2023-03-24T07:16:01;6.17;;;4.17;;
52480;SDS011;38393;52.404;13.532;2023-03-24T07:18:26;5.73;;;3.87;;
52480;SDS011;38393;52.404;13.532;2023-03-24T07:20:52;12.93;;;6.97;;
52480;SDS011;38393;52.404;13.532;2023-03-24T07:23:18;5.67;;;3.83;;
52480;SDS011;38393;52.404;13.532;2023-03-24T07:25:44;6.07;;;4.03;;
52480;SDS011;38393;52.404;13.532;2023-03-24T07:28:09;5.17;;;3.73;;
52480;SDS011;38393;52.404;13.532;2023-03-24T07:30:35;7.30;;;3.93;;
52480;SDS011;38393;52.404;13.532;2023-03-24T07:33:01;6.20;;;4.50;;
52480;SDS011;38393;52.404;13.532;2023-03-24T07:35:28;10.70;;;5.80;;
52480;SDS011;38393;52.404;13.532;2023-03-24T07:38:00;12.47;;;6.83;;
52480;SDS011;38393;52.404;13.532;2023-03-24T07:40:26;6.67;;;3.93;;
52480;SDS011;38393;52.404;13.532;2023-03-24T07:42:51;6.43;;;3.53;;
52480;SDS011;38393;52.404;13.532;2023-03-24T07:45:17;5.37;;;3.67;;
52480;SDS011;38393;52.404;13.532;2023-03-24T07:47:43;8.17;;;3.90;;
52480;SDS011;38393;52.404;13.532;2023-03-24T07:50:10;4.57;;;3.50;;
52480;SDS011;38393;52.404;13.532;2023-03-24T07:52:37;5.37;;;3.50;;
52480;SDS011;38393;52.404;13.532;2023-03-24T07:55:04;5.57;;;3.60;;
52480;SDS011;38393;52.404;13.532;2023-03-24T07:57:30;5.80;;;3.77;;
52480;SDS011;38393;52.404;13.532;2023-03-24T07:59:56;5.10;;;3.87;;
52480;SDS011;38393;52.404;13.532;2023-03-24T08:02:21;5.33;;;3.73;;
52480;SDS011;38393;52.404;13.532;2023-03-24T08:04:50;5.20;;;3.80;;
52480;SDS011;38393;52.404;13.532;2023-03-24T08:07:20;8.07;;;4.20;;
52480;SDS011;38393;52.404;13.532;2023-03-24T08:09:45;7.10;;;3.90;;
52480;SDS011;38393;52.404;13.532;2023-03-24T08:12:11;5.43;;;3.93;;
52480;SDS011;38393;52.404;13.532;2023-03-24T08:14:37;5.57;;;4.50;;
52480;SDS011;38393;52.404;13.532;2023-03-24T08:17:03;6.77;;;4.70;;
52480;SDS011;38393;52.404;13.532;2023-03-24T08:19:28;6.33;;;4.43;;
52480;SDS011;38393;52.404;13.532;2023-03-24T08:21:54;7.70;;;4.40;;
52480;SDS011;38393;52.404;13.532;2023-03-24T08:24:20;7.93;;;5.20;;
52480;SDS011;38393;52.404;13.532;2023-03-24T08:26:45;6.80;;;4.33;;
52480;SDS011;38393;52.404;13.532;2023-03-24T08:29:11;9.67;;;4.60;;
52480;SDS011;38393;52.404;13.532;2023-03-24T08:31:37;9.77;;;4.50;;
52480;SDS011;38393;52.404;13.532;2023-03-24T08:34:03;9.10;;;5.13;;
52480;SDS011;38393;52.404;13.532;2023-03-24T08:36:30;7.57;;;4.70;;
52480;SDS011;38393;52.404;13.532;2023-03-24T08:38:56;7.00;;;5.10;;
52480;SDS011;38393;52.404;13.532;2023-03-24T08:41:22;11.13;;;5.40;;
52480;SDS011;38393;52.404;13.532;2023-03-24T08:43:58;8.57;;;4.80;;
52480;SDS011;38393;52.404;13.532;2023-03-24T08:46:25;8.17;;;5.07;;
52480;SDS011;38393;52.404;13.532;2023-03-24T08:48:51;6.40;;;5.20;;
52480;SDS011;38393;52.404;13.532;2023-03-24T08:51:16;8.93;;;5.20;;
52480;SDS011;38393;52.404;13.532;2023-03-24T08:53:42;16.20;;;5.73;;
52480;SDS011;38393;52.404;13.532;2023-03-24T08:56:08;9.10;;;5.40;;
52480;SDS011;38393;52.404;13.532;2023-03-24T08:58:34;9.57;;;4.97;;
52480;SDS011;38393;52.404;13.532;2023-03-24T09:01:00;6.87;;;5.23;;
52480;SDS011;38393;52.404;13.532;2023-03-24T09:03:26;6.77;;;4.90;;
52480;SDS011;38393;52.404;13.532;2023-03-24T09:05:54;7.33;;;4.73;;
52480;SDS011;38393;52.404;13.532;2023-03-24T09:08:23;9.13;;;4.47;;
52480;SDS011;38393;52.404;13.532;2023-03-24T09:10:49;7.67;;;4.70;;
52480;SDS011;38393;52.404;13.532;2023-03-24T09:13:15;7.23;;;4.50;;
52480;SDS011;38393;52.404;13.532;2023-03-24T09:15:45;5.70;;;4.73;;
52480;SDS011;38393;52.404;13.532;2023-03-24T09:18:12;9.20;;;5.07;;
52480;SDS011;38393;52.404;13.532;2023-03-24T09:20:37;6.17;;;4.50;;
52480;SDS011;38393;52.404;13.532;2023-03-24T09:23:03;5.33;;;4.47;;
52480;SDS011;38393;52.404;13.532;2023-03-24T09:25:28;5.60;;;4.43;;
52480;SDS011;38393;52.404;13.532;2023-03-24T09:27:54;6.47;;;4.30;;
52480;SDS011;38393;52.404;13.532;2023-03-24T09:30:20;10.10;;;4.80;;
52480;SDS011;38393;52.404;13.532;2023-03-24T09:32:46;6.47;;;4.30;;
52480;SDS011;38393;52.404;13.532;2023-03-24T09:35:11;6.30;;;4.30;;
52480;SDS011;38393;52.404;13.532;2023-03-24T09:37:39;5.73;;;4.07;;
52480;SDS011;38393;52.404;13.532;2023-03-24T09:40:07;6.87;;;4.27;;
52480;SDS011;38393;52.404;13.532;2023-03-24T09:42:38;7.20;;;3.90;;
52480;SDS011;38393;52.404;13.532;2023-03-24T09:45:15;7.40;;;4.10;;
52480;SDS011;38393;52.404;13.532;2023-03-24T09:47:55;6.17;;;3.90;;
52480;SDS011;38393;52.404;13.532;2023-03-24T09:50:28;6.83;;;4.10;;
52480;SDS011;38393;52.404;13.532;2023-03-24T09:53:06;5.20;;;4.00;;
52480;SDS011;38393;52.404;13.532;2023-03-24T09:55:39;5.67;;;4.10;;
52480;SDS011;38393;52.404;13.532;2023-03-24T09:58:07;7.63;;;4.07;;
52480;SDS011;38393;52.404;13.532;2023-03-24T10:00:35;6.97;;;4.23;;
52480;SDS011;38393;52.404;13.532;2023-03-24T10:05:40;5.77;;;4.37;;
52480;SDS011;38393;52.404;13.532;2023-03-24T10:08:12;7.13;;;4.07;;
52480;SDS011;38393;52.404;13.532;2023-03-24T10:13:39;5.93;;;4.07;;
52480;SDS011;38393;52.404;13.532;2023-03-24T10:16:27;7.43;;;4.40;;
52480;SDS011;38393;52.404;13.532;2023-03-24T10:21:54;5.90;;;4.20;;
52480;SDS011;38393;52.404;13.532;2023-03-24T10:24:41;6.77;;;4.30;;
52480;SDS011;38393;52.404;13.532;2023-03-24T10:29:40;5.13;;;3.70;;
52480;SDS011;38393;52.404;13.532;2023-03-24T10:32:14;4.93;;;3.70;;
52480;SDS011;38393;52.404;13.532;2023-03-24T10:34:47;5.43;;;3.50;;
52480;SDS011;38393;52.404;13.532;2023-03-24T10:37:18;4.57;;;3.47;;
52480;SDS011;38393;52.404;13.532;2023-03-24T10:39:44;3.47;;;2.90;;
52480;SDS011;38393;52.404;13.532;2023-03-24T10:42:14;4.50;;;3.00;;
52480;SDS011;38393;52.404;13.532;2023-03-24T10:44:42;4.80;;;2.93;;
52480;SDS011;38393;52.404;13.532;2023-03-24T10:47:09;3.50;;;2.80;;
52480;SDS011;38393;52.404;13.532;2023-03-24T10:49:38;5.03;;;2.70;;
52480;SDS011;38393;52.404;13.532;2023-03-24T10:52:17;3.73;;;2.60;;
52480;SDS011;38393;52.404;13.532;2023-03-24T10:54:52;5.43;;;3.00;;
52480;SDS011;38393;52.404;13.532;2023-03-24T10:57:43;5.77;;;3.00;;
52480;SDS011;38393;52.404;13.532;2023-03-24T11:00:15;3.77;;;3.00;;
52480;SDS011;38393;52.404;13.532;2023-03-24T11:03:03;3.87;;;2.57;;
52480;SDS011;38393;52.404;13.532;2023-03-24T11:05:31;3.20;;;2.50;;
52480;SDS011;38393;52.404;13.532;2023-03-24T11:10:55;3.07;;;2.07;;
52480;SDS011;38393;52.404;13.532;2023-03-24T11:15:54;2.80;;;1.93;;
52480;SDS011;38393;52.404;13.532;2023-03-24T11:18:33;2.50;;;2.07;;
52480;SDS011;38393;52.404;13.532;2023-03-24T11:20:59;2.53;;;1.90;;
52480;SDS011;38393;52.404;13.532;2023-03-24T11:26:12;4.27;;;2.23;;
52480;SDS011;38393;52.404;13.532;2023-03-24T11:29:02;3.90;;;2.23;;
52480;SDS011;38393;52.404;13.532;2023-03-24T11:31:32;3.23;;;2.20;;
52480;SDS011;38393;52.404;13.532;2023-03-24T11:34:14;1.97;;;1.73;;
52480;SDS011;38393;52.404;13.532;2023-03-24T11:36:58;2.43;;;1.90;;
52480;SDS011;38393;52.404;13.532;2023-03-24T11:39:27;2.90;;;1.93;;
52480;SDS011;38393;52.404;13.532;2023-03-24T11:47:04;3.37;;;1.97;;
52480;SDS011;38393;52.404;13.532;2023-03-24T11:49:38;3.30;;;2.30;;
52480;SDS011;38393;52.404;13.532;2023-03-24T11:52:12;4.10;;;2.30;;
52480;SDS011;38393;52.404;13.532;2023-03-24T11:54:46;3.28;;;2.53;;
52480;SDS011;38393;52.404;13.532;2023-03-24T11:57:12;5.38;;;2.53;;
52480;SDS011;38393;52.404;13.532;2023-03-24T12:05:25;3.73;;;2.60;;
52480;SDS011;38393;52.404;13.532;2023-03-24T12:08:21;7.10;;;2.47;;
52480;SDS011;38393;52.404;13.532;2023-03-24T12:11:12;4.17;;;2.40;;
52480;SDS011;38393;52.404;13.532;2023-03-24T12:13:42;5.78;;;2.72;;
52480;SDS011;38393;52.404;13.532;2023-03-24T12:16:25;3.93;;;2.63;;
52480;SDS011;38393;52.404;13.532;2023-03-24T12:19:20;4.70;;;2.70;;
52480;SDS011;38393;52.404;13.532;2023-03-24T12:25:44;5.50;;;2.73;;
52480;SDS011;38393;52.404;13.532;2023-03-24T12:28:19;2.90;;;2.40;;
52480;SDS011;38393;52.404;13.532;2023-03-24T12:31:08;3.67;;;2.60;;
52480;SDS011;38393;52.404;13.532;2023-03-24T12:34:09;2.78;;;2.28;;
52480;SDS011;38393;52.404;13.532;2023-03-24T12:37:03;4.25;;;2.90;;
52480;SDS011;38393;52.404;13.532;2023-03-24T12:40:01;6.00;;;3.10;;
52480;SDS011;38393;52.404;13.532;2023-03-24T12:42:47;5.30;;;2.83;;
52480;SDS011;38393;52.404;13.532;2023-03-24T12:45:36;3.13;;;2.57;;
52480;SDS011;38393;52.404;13.532;2023-03-24T12:56:34;4.40;;;2.60;;
52480;SDS011;38393;52.404;13.532;2023-03-24T12:59:18;10.70;;;3.07;;
52480;SDS011;38393;52.404;13.532;2023-03-24T13:02:11;5.17;;;2.30;;
52480;SDS011;38393;52.404;13.532;2023-03-24T13:04:41;9.37;;;2.70;;
52480;SDS011;38393;52.404;13.532;2023-03-24T13:07:16;5.43;;;2.53;;
52480;SDS011;38393;52.404;13.532;2023-03-24T13:12:23;3.73;;;2.50;;
52480;SDS011;38393;52.404;13.532;2023-03-24T13:15:04;3.33;;;2.30;;
52480;SDS011;38393;52.404;13.532;2023-03-24T13:17:40;4.07;;;2.73;;
52480;SDS011;38393;52.404;13.532;2023-03-24T13:20:31;4.17;;;2.20;;
52480;SDS011;38393;52.404;13.532;2023-03-24T13:28:53;3.13;;;2.13;;
52480;SDS011;38393;52.404;13.532;2023-03-24T13:32:02;3.07;;;2.10;;
52480;SDS011;38393;52.404;13.532;2023-03-24T13:34:39;4.57;;;2.00;;
52480;SDS011;38393;52.404;13.532;2023-03-24T13:37:10;4.60;;;2.07;;
52480;SDS011;38393;52.404;13.532;2023-03-24T13:39:39;10.50;;;2.13;;
52480;SDS011;38393;52.404;13.532;2023-03-24T13:42:26;3.73;;;2.03;;
52480;SDS011;38393;52.404;13.532;2023-03-24T13:45:00;3.63;;;2.23;;
52480;SDS011;38393;52.404;13.532;2023-03-24T13:47:49;3.37;;;2.10;;
52480;SDS011;38393;52.404;13.532;2023-03-24T13:50:27;2.60;;;1.90;;
52480;SDS011;38393;52.404;13.532;2023-03-24T13:52:56;3.17;;;1.90;;
52480;SDS011;38393;52.404;13.532;2023-03-24T13:55:29;4.37;;;2.03;;
52480;SDS011;38393;52.404;13.532;2023-03-24T13:57:59;4.47;;;2.07;;
52480;SDS011;38393;52.404;13.532;2023-03-24T14:00:34;3.10;;;1.80;;
52480;SDS011;38393;52.404;13.532;2023-03-24T14:03:35;4.30;;;1.50;;
52480;SDS011;38393;52.404;13.532;2023-03-24T14:06:04;2.90;;;1.80;;
52480;SDS011;38393;52.404;13.532;2023-03-24T14:14:15;3.20;;;1.80;;
52480;SDS011;38393;52.404;13.532;2023-03-24T14:16:50;3.53;;;1.80;;
52480;SDS011;38393;52.404;13.532;2023-03-24T14:19:23;2.57;;;1.60;;
52480;SDS011;38393;52.404;13.532;2023-03-24T14:21:51;2.37;;;1.70;;
52480;SDS011;38393;52.404;13.532;2023-03-24T14:24:22;3.03;;;1.93;;
52480;SDS011;38393;52.404;13.532;2023-03-24T14:26:50;2.20;;;1.70;;
52480;SDS011;38393;52.404;13.532;2023-03-24T14:29:35;5.80;;;1.90;;
52480;SDS011;38393;52.404;13.532;2023-03-24T14:32:03;2.17;;;1.60;;
52480;SDS011;38393;52.404;13.532;2023-03-24T14:34:29;2.83;;;1.57;;
52480;SDS011;38393;52.404;13.532;2023-03-24T14:36:58;3.17;;;1.50;;
52480;SDS011;38393;52.404;13.532;2023-03-24T14:39:35;2.77;;;1.57;;
52480;SDS011;38393;52.404;13.532;2023-03-24T14:50:17;4.27;;;2.20;;
52480;SDS011;38393;52.404;13.532;2023-03-24T14:52:57;3.63;;;2.00;;
52480;SDS011;38393;52.404;13.532;2023-03-24T14:55:24;2.83;;;1.53;;
52480;SDS011;38393;52.404;13.532;2023-03-24T14:57:52;4.83;;;2.20;;
52480;SDS011;38393;52.404;13.532;2023-03-24T15:03:20;4.40;;;1.60;;
52480;SDS011;38393;52.404;13.532;2023-03-24T15:06:02;3.47;;;1.40;;
52480;SDS011;38393;52.404;13.532;2023-03-24T15:08:33;3.87;;;1.83;;
52480;SDS011;38393;52.404;13.532;2023-03-24T15:11:00;3.40;;;1.63;;
52480;SDS011;38393;52.404;13.532;2023-03-24T15:16:22;2.90;;;1.80;;
52480;SDS011;38393;52.404;13.532;2023-03-24T15:21:33;4.37;;;1.97;;
52480;SDS011;38393;52.404;13.532;2023-03-24T15:24:01;11.37;;;2.20;;
52480;SDS011;38393;52.404;13.532;2023-03-24T15:26:42;2.90;;;1.80;;
52480;SDS011;38393;52.404;13.532;2023-03-24T15:29:09;3.93;;;2.07;;
52480;SDS011;38393;52.404;13.532;2023-03-24T15:31:35;5.07;;;1.90;;
52480;SDS011;38393;52.404;13.532;2023-03-24T15:36:34;4.73;;;1.93;;
52480;SDS011;38393;52.404;13.532;2023-03-24T15:39:14;4.87;;;1.87;;
52480;SDS011;38393;52.404;13.532;2023-03-24T15:41:44;4.80;;;1.97;;
52480;SDS011;38393;52.404;13.532;2023-03-24T15:44:23;5.13;;;2.00;;
52480;SDS011;38393;52.404;13.532;2023-03-24T15:46:53;3.27;;;1.90;;
52480;SDS011;38393;52.404;13.532;2023-03-24T15:49:23;5.23;;;1.80;;
52480;SDS011;38393;52.404;13.532;2023-03-24T15:51:58;5.60;;;2.40;;
52480;SDS011;38393;52.404;13.532;2023-03-24T15:57:10;5.43;;;2.10;;
52480;SDS011;38393;52.404;13.532;2023-03-24T15:59:44;5.83;;;2.10;;
52480;SDS011;38393;52.404;13.532;2023-03-24T16:02:21;4.33;;;1.97;;
52480;SDS011;38393;52.404;13.532;2023-03-24T16:04:56;6.07;;;2.50;;
52480;SDS011;38393;52.404;13.532;2023-03-24T16:07:32;3.23;;;2.07;;
52480;SDS011;38393;52.404;13.532;2023-03-24T16:10:00;4.33;;;1.90;;
52480;SDS011;38393;52.404;13.532;2023-03-24T16:12:36;5.90;;;2.00;;
52480;SDS011;38393;52.404;13.532;2023-03-24T16:15:02;4.27;;;2.23;;
52480;SDS011;38393;52.404;13.532;2023-03-24T16:17:30;3.20;;;1.90;;
52480;SDS011;38393;52.404;13.532;2023-03-24T16:19:56;4.60;;;2.17;;
52480;SDS011;38393;52.404;13.532;2023-03-24T16:22:21;6.37;;;2.23;;
52480;SDS011;38393;52.404;13.532;2023-03-24T16:24:47;5.27;;;2.10;;
52480;SDS011;38393;52.404;13.532;2023-03-24T16:27:13;3.70;;;1.90;;
52480;SDS011;38393;52.404;13.532;2023-03-24T16:29:38;4.53;;;2.17;;
52480;SDS011;38393;52.404;13.532;2023-03-24T16:32:04;4.13;;;2.10;;
52480;SDS011;38393;52.404;13.532;2023-03-24T16:34:30;5.00;;;2.10;;
52480;SDS011;38393;52.404;13.532;2023-03-24T16:36:57;4.90;;;2.00;;
52480;SDS011;38393;52.404;13.532;2023-03-24T16:39:24;5.70;;;2.30;;
52480;SDS011;38393;52.404;13.532;2023-03-24T16:41:50;3.73;;;2.67;;
52480;SDS011;38393;52.404;13.532;2023-03-24T16:44:16;7.63;;;2.60;;
52480;SDS011;38393;52.404;13.532;2023-03-24T16:46:42;5.47;;;2.80;;